createdAt,value
2023-04-14T00:01:56.411Z,99105.56
2023-04-14T00:04:23.071Z,99107.38
2023-04-14T00:06:49.634Z,99106.72
2023-04-14T00:09:16.066Z,99104.22
2023-04-14T00:11:42.518Z,99110.38
2023-04-14T00:14:09.044Z,99109.47
2023-04-14T00:16:35.616Z,99114.72
2023-04-14T00:19:02.689Z,99116.41
2023-04-14T00:21:29.385Z,99125.88
2023-04-14T00:23:56.770Z,99128.41
2023-04-14T00:26:23.351Z,99122.94
2023-04-14T00:28:49.728Z,99119.38
2023-04-14T00:31:16.431Z,99127.91
2023-04-14T00:33:45.957Z,99135.69
2023-04-14T00:36:12.410Z,99140.63
2023-04-14T00:38:39.584Z,99136.31
2023-04-14T00:41:06.120Z,99140.75
2023-04-14T00:43:32.521Z,99143.16
2023-04-14T00:45:59.038Z,99143.06
2023-04-14T00:48:25.772Z,99144.66
2023-04-14T00:50:52.413Z,99144.47
2023-04-14T00:53:19.952Z,99149.53
2023-04-14T00:55:46.977Z,99144.06
2023-04-14T00:58:14.633Z,99154.19
2023-04-14T01:00:41.996Z,99157.44
2023-04-14T01:03:08.597Z,99163.28
2023-04-14T01:05:35.430Z,99165.63
2023-04-14T01:08:03.922Z,99164.66
2023-04-14T01:10:38.081Z,99167.28
2023-04-14T01:13:22.722Z,99158.78
2023-04-14T01:16:03.292Z,99159.81
2023-04-14T01:18:41.142Z,99150.19
2023-04-14T01:21:16.380Z,99149.88
2023-04-14T01:24:08.059Z,99146.69
2023-04-14T01:26:34.889Z,99145.84
2023-04-14T01:29:30.471Z,99140.25
2023-04-14T01:32:11.552Z,99145.69
2023-04-14T01:34:49.718Z,99144.75
2023-04-14T01:37:21.362Z,99149.28
2023-04-14T01:39:53.203Z,99146.13
2023-04-14T01:42:24.952Z,99146.31
2023-04-14T01:44:56.538Z,99128.94
2023-04-14T01:47:26.151Z,99131.66
2023-04-14T01:49:54.098Z,99136.94
2023-04-14T01:52:22.379Z,99132.72
2023-04-14T01:54:52.245Z,99143.31
2023-04-14T01:57:22.915Z,99141.56
2023-04-14T01:59:51.814Z,99142.69
2023-04-14T02:02:21.203Z,99137.63
2023-04-14T02:04:49.296Z,99139.63
2023-04-14T02:07:18.368Z,99139.81
2023-04-14T02:09:45.968Z,99139.16
2023-04-14T02:12:12.625Z,99133.25
2023-04-14T02:14:41.726Z,99137.88
2023-04-14T02:17:10.920Z,99125.84
2023-04-14T02:19:37.942Z,99132.06
2023-04-14T02:22:04.890Z,99135.81
2023-04-14T02:24:31.408Z,99136.97
2023-04-14T02:27:10.450Z,99136.50
2023-04-14T02:29:40.503Z,99139.94
2023-04-14T02:32:12.234Z,99141.13
2023-04-14T02:34:47.616Z,99137.91
2023-04-14T02:37:22.650Z,99142.44
2023-04-14T02:39:56.706Z,99134.53
2023-04-14T02:42:26.866Z,99134.72
2023-04-14T02:45:06.460Z,99138.31
2023-04-14T02:47:35.976Z,99136.53
2023-04-14T02:50:05.807Z,99142.59
2023-04-14T02:52:33.824Z,99142.50
2023-04-14T02:55:02.933Z,99145.16
2023-04-14T02:57:30.417Z,99147.69
2023-04-14T02:59:59.074Z,99146.09
2023-04-14T03:02:26.162Z,99155.66
2023-04-14T03:04:53.769Z,99155.00
2023-04-14T03:07:22.063Z,99160.34
2023-04-14T03:09:51.852Z,99160.63
2023-04-14T03:12:19.990Z,99159.88
2023-04-14T03:14:48.297Z,99166.19
2023-04-14T03:17:15.420Z,99159.22
2023-04-14T03:19:42.980Z,99167.22
2023-04-14T03:22:12.471Z,99165.50
2023-04-14T03:24:40.321Z,99155.94
2023-04-14T03:27:14.077Z,99152.75
2023-04-14T03:29:44.733Z,99164.94
2023-04-14T03:32:13.415Z,99162.50
2023-04-14T03:34:42.945Z,99162.69
2023-04-14T03:37:11.259Z,99172.44
2023-04-14T03:39:39.577Z,99172.66
2023-04-14T03:42:11.379Z,99164.09
2023-04-14T03:44:39.872Z,99166.06
2023-04-14T03:47:08.151Z,99167.19
2023-04-14T03:49:38.129Z,99172.69
2023-04-14T03:52:09.985Z,99170.28
2023-04-14T03:54:39.036Z,99164.34
2023-04-14T03:57:08.798Z,99173.25
2023-04-14T03:59:36.946Z,99169.97
2023-04-14T04:02:04.408Z,99171.09
2023-04-14T04:04:32.244Z,99170.44
2023-04-14T04:06:59.535Z,99174.91
2023-04-14T04:09:27.354Z,99178.66
2023-04-14T04:11:59.911Z,99178.00
2023-04-14T04:14:28.397Z,99184.19
2023-04-14T04:16:56.443Z,99183.50
2023-04-14T04:19:25.214Z,99178.44
2023-04-14T04:21:58.675Z,99182.03
2023-04-14T04:27:12.039Z,99180.63
2023-04-14T04:29:44.224Z,99188.66
2023-04-14T04:35:56.289Z,99187.22
2023-04-14T04:41:23.361Z,99191.97
2023-04-14T04:43:59.105Z,99185.78
2023-04-14T04:46:47.297Z,99193.16
2023-04-14T04:49:19.712Z,99192.34
2023-04-14T04:53:13.703Z,99190.03
2023-04-14T05:04:52.126Z,99188.59
2023-04-14T05:07:30.488Z,99187.94
2023-04-14T05:07:35.921Z,99190.91
2023-04-14T05:12:50.192Z,99196.66
2023-04-14T05:15:16.699Z,99186.09
2023-04-14T05:17:56.582Z,99194.22
2023-04-14T05:23:53.847Z,99196.56
2023-04-14T05:26:52.028Z,99205.53
2023-04-14T05:30:08.960Z,99210.19
2023-04-14T05:32:35.724Z,99204.00
2023-04-14T05:35:02.502Z,99208.41
2023-04-14T05:41:31.311Z,99206.81
2023-04-14T05:44:12.065Z,99208.22
2023-04-14T05:46:38.929Z,99212.28
2023-04-14T05:49:19.444Z,99209.59
2023-04-14T05:51:46.060Z,99205.13
2023-04-14T05:54:12.536Z,99212.91
2023-04-14T05:56:39.251Z,99210.28
2023-04-14T05:59:34.117Z,99212.91
2023-04-14T06:02:06.134Z,99213.81
2023-04-14T06:04:33.900Z,99213.00
2023-04-14T06:10:14.127Z,99220.00
2023-04-14T06:16:11.467Z,99210.09
2023-04-14T06:18:38.073Z,99220.34
2023-04-14T06:24:46.998Z,99218.31
2023-04-14T06:27:21.209Z,99217.13
2023-04-14T06:32:37.962Z,99222.78
2023-04-14T06:35:36.929Z,99230.66
2023-04-14T06:38:59.715Z,99223.44
2023-04-14T06:41:35.580Z,99226.66
2023-04-14T06:44:02.079Z,99221.97
2023-04-14T06:46:36.689Z,99225.47
2023-04-14T06:49:03.966Z,99222.47
2023-04-14T06:52:02.624Z,99224.84
2023-04-14T06:57:27.584Z,99228.56
2023-04-14T07:03:52.023Z,99212.13
2023-04-14T07:06:18.703Z,99213.56
2023-04-14T07:08:46.465Z,99214.03
2023-04-14T07:11:40.324Z,99212.91
2023-04-14T07:14:43.572Z,99221.03
2023-04-14T07:17:45.451Z,99213.31
2023-04-14T07:21:00.073Z,99217.84
2023-04-14T07:23:33.748Z,99216.56
2023-04-14T07:26:17.659Z,99216.81
2023-04-14T07:29:19.107Z,99221.63
2023-04-14T07:31:47.826Z,99214.56
2023-04-14T07:34:14.479Z,99214.81
2023-04-14T07:36:41.070Z,99221.22
2023-04-14T07:39:07.547Z,99218.00
2023-04-14T07:41:46.074Z,99221.94
2023-04-14T07:44:12.604Z,99225.47
2023-04-14T07:46:42.005Z,99223.28
2023-04-14T07:49:11.388Z,99234.97
2023-04-14T07:51:58.124Z,99235.44
2023-04-14T07:54:27.957Z,99232.03
2023-04-14T07:56:54.545Z,99238.41
2023-04-14T07:59:21.060Z,99233.47
2023-04-14T08:01:48.539Z,99232.00
2023-04-14T08:04:24.699Z,99238.56
2023-04-14T08:06:51.371Z,99234.97
2023-04-14T08:09:33.359Z,99239.84
2023-04-14T08:12:26.510Z,99240.59
2023-04-14T08:14:59.158Z,99236.47
2023-04-14T08:17:25.961Z,99239.84
2023-04-14T08:19:52.812Z,99242.59
2023-04-14T08:22:19.343Z,99238.16
2023-04-14T08:24:46.008Z,99238.00
2023-04-14T08:27:12.512Z,99236.94
2023-04-14T08:29:39.026Z,99233.09
2023-04-14T08:32:05.909Z,99233.78
2023-04-14T08:34:32.425Z,99229.06
2023-04-14T08:37:00.312Z,99226.88
2023-04-14T08:39:27.132Z,99229.09
2023-04-14T08:41:55.672Z,99237.44
2023-04-14T08:44:22.974Z,99237.81
2023-04-14T08:46:55.786Z,99233.13
2023-04-14T08:49:45.806Z,99233.06
2023-04-14T08:52:13.037Z,99228.25
2023-04-14T08:54:41.278Z,99227.41
2023-04-14T08:57:18.871Z,99229.44
2023-04-14T08:59:45.561Z,99220.66
2023-04-14T09:02:13.333Z,99223.53
2023-04-14T09:04:44.277Z,99229.88
2023-04-14T09:07:12.177Z,99223.94
2023-04-14T09:09:38.785Z,99229.75
2023-04-14T09:12:06.176Z,99225.25
2023-04-14T09:14:33.873Z,99232.28
2023-04-14T09:17:00.608Z,99218.88
2023-04-14T09:19:27.936Z,99224.16
2023-04-14T09:21:55.992Z,99229.22
2023-04-14T09:24:31.225Z,99224.38
2023-04-14T09:26:58.744Z,99227.38
2023-04-14T09:29:26.720Z,99231.34
2023-04-14T09:31:53.601Z,99219.16
2023-04-14T09:34:21.444Z,99230.09
2023-04-14T09:37:10.973Z,99227.88
2023-04-14T09:39:54.265Z,99225.22
2023-04-14T09:42:36.741Z,99228.66
2023-04-14T09:45:05.202Z,99229.03
2023-04-14T09:47:32.388Z,99225.72
2023-04-14T09:50:00.863Z,99223.38
2023-04-14T09:52:41.286Z,99214.75
2023-04-14T09:55:11.106Z,99205.88
2023-04-14T09:57:38.554Z,99209.28
2023-04-14T10:00:25.463Z,99216.72
2023-04-14T10:02:59.035Z,99210.34
2023-04-14T10:05:32.182Z,99210.66
2023-04-14T10:08:03.912Z,99208.97
2023-04-14T10:10:30.444Z,99205.41
2023-04-14T10:12:57.042Z,99210.72
2023-04-14T10:15:24.124Z,99209.91
2023-04-14T10:17:50.864Z,99199.56
2023-04-14T10:20:17.985Z,99205.16
2023-04-14T10:22:45.020Z,99201.13
2023-04-14T10:25:13.237Z,99197.91
2023-04-14T10:27:40.375Z,99200.13
2023-04-14T10:30:08.876Z,99191.63
2023-04-14T10:32:37.399Z,99197.34
2023-04-14T10:35:05.844Z,99192.31
2023-04-14T10:37:33.009Z,99195.09
2023-04-14T10:40:00.989Z,99184.44
2023-04-14T10:42:28.661Z,99181.63
2023-04-14T10:45:08.402Z,99182.44
2023-04-14T10:47:36.100Z,99178.06
2023-04-14T10:50:13.216Z,99181.81
2023-04-14T10:52:56.157Z,99175.63
2023-04-14T10:55:27.822Z,99187.06
2023-04-14T10:58:05.530Z,99178.19
2023-04-14T11:00:37.281Z,99178.69
2023-04-14T11:03:07.724Z,99171.63
2023-04-14T11:05:35.037Z,99161.75
2023-04-14T11:08:12.837Z,99165.84
2023-04-14T11:10:39.508Z,99154.69
2023-04-14T11:13:10.946Z,99157.41
2023-04-14T11:15:57.075Z,99158.78
2023-04-14T11:18:29.426Z,99149.91
2023-04-14T11:21:06.771Z,99149.59
2023-04-14T11:23:34.713Z,99146.72
2023-04-14T11:26:01.585Z,99145.00
2023-04-14T11:28:29.004Z,99147.59
2023-04-14T11:30:58.327Z,99154.31
2023-04-14T11:33:37.319Z,99149.25
2023-04-14T11:36:07.072Z,99145.84
2023-04-14T11:38:40.217Z,99139.81
2023-04-14T11:41:07.096Z,99139.84
2023-04-14T11:43:33.609Z,99140.47
2023-04-14T11:46:03.001Z,99138.06
2023-04-14T11:48:30.859Z,99124.13
2023-04-14T11:51:02.582Z,99125.53
2023-04-14T11:53:29.208Z,99123.50
2023-04-14T11:55:57.386Z,99130.34
2023-04-14T11:58:25.754Z,99122.91
2023-04-14T12:00:55.936Z,99126.16
2023-04-14T12:03:27.744Z,99132.19
2023-04-14T12:06:01.318Z,99128.22
2023-04-14T12:08:29.974Z,99123.91
2023-04-14T12:10:57.530Z,99125.94
2023-04-14T12:13:24.628Z,99122.53
2023-04-14T12:15:51.310Z,99124.66
2023-04-14T12:20:46.292Z,99118.41
2023-04-14T12:23:12.767Z,99116.25
2023-04-14T12:25:39.754Z,99112.22
2023-04-14T12:28:06.628Z,99113.72
2023-04-14T12:30:34.049Z,99102.69
2023-04-14T12:33:08.546Z,99101.28
2023-04-14T12:35:35.075Z,99105.56
2023-04-14T12:38:01.543Z,99106.38
2023-04-14T12:40:39.237Z,99104.13
2023-04-14T12:43:06.108Z,99094.16
2023-04-14T12:45:45.834Z,99103.47
2023-04-14T12:48:13.582Z,99104.25
2023-04-14T12:50:40.160Z,99096.84
2023-04-14T12:53:26.208Z,99099.59
2023-04-14T12:56:09.080Z,99090.50
2023-04-14T12:58:40.011Z,99097.97
2023-04-14T13:01:07.883Z,99096.00
2023-04-14T13:03:42.856Z,99089.91
2023-04-14T13:06:11.205Z,99093.47
2023-04-14T13:08:38.024Z,99086.94
2023-04-14T13:11:04.549Z,99083.34
2023-04-14T13:13:30.925Z,99078.69
2023-04-14T13:16:14.159Z,99082.41
2023-04-14T13:18:43.154Z,99077.78
2023-04-14T13:21:09.828Z,99081.25
2023-04-14T13:23:36.610Z,99073.00
2023-04-14T13:26:03.674Z,99069.75
2023-04-14T13:28:30.206Z,99068.06
2023-04-14T13:30:57.680Z,99068.00
2023-04-14T13:33:25.634Z,99072.56
2023-04-14T13:35:53.009Z,99064.66
2023-04-14T13:38:19.323Z,99061.28
2023-04-14T13:40:47.531Z,99055.50
2023-04-14T13:43:16.392Z,99049.78
2023-04-14T13:45:42.861Z,99049.91
2023-04-14T13:48:09.243Z,99043.13
2023-04-14T13:50:35.741Z,99038.78
2023-04-14T13:53:02.086Z,99040.53
2023-04-14T13:55:28.463Z,99041.44
2023-04-14T13:57:55.232Z,99039.63
2023-04-14T14:00:21.741Z,99032.38
2023-04-14T14:02:48.186Z,99036.66
2023-04-14T14:05:15.506Z,99029.94
2023-04-14T14:07:43.347Z,99030.78
2023-04-14T14:10:10.712Z,99027.13
2023-04-14T14:12:37.590Z,99031.72
2023-04-14T14:15:05.401Z,99031.03
2023-04-14T14:17:31.974Z,99035.13
2023-04-14T14:19:58.885Z,99036.09
2023-04-14T14:22:25.647Z,99037.53
2023-04-14T14:24:58.551Z,99029.69
2023-04-14T14:27:31.583Z,99025.31
2023-04-14T14:29:57.958Z,99027.63
2023-04-14T14:32:24.284Z,99026.06
2023-04-14T14:34:50.681Z,99030.47
2023-04-14T14:37:18.160Z,99028.34
2023-04-14T14:39:44.861Z,99026.91
2023-04-14T14:42:11.397Z,99022.56
2023-04-14T14:44:38.040Z,99024.06
2023-04-14T14:47:05.326Z,99024.56
2023-04-14T14:49:32.115Z,99026.19
2023-04-14T14:51:58.566Z,99030.69
2023-04-14T14:54:24.833Z,99026.84
2023-04-14T14:56:51.156Z,99033.75
2023-04-14T14:59:17.560Z,99030.00
2023-04-14T15:01:44.689Z,99020.72
2023-04-14T15:04:12.012Z,99027.28
2023-04-14T15:06:38.338Z,99013.13
2023-04-14T15:09:05.378Z,99018.53
2023-04-14T15:11:31.818Z,99013.00
2023-04-14T15:13:58.606Z,99019.44
2023-04-14T15:16:25.070Z,99012.28
2023-04-14T15:18:51.472Z,99014.38
2023-04-14T15:21:17.803Z,99014.66
2023-04-14T15:23:45.459Z,99014.19
2023-04-14T15:26:14.678Z,99019.31
2023-04-14T15:28:41.146Z,99013.19
2023-04-14T15:31:08.289Z,99018.25
2023-04-14T15:33:34.776Z,99014.31
2023-04-14T15:36:01.513Z,99018.16
2023-04-14T15:38:27.991Z,99010.41
2023-04-14T15:40:54.394Z,99004.94
2023-04-14T15:43:21.437Z,99010.38
2023-04-14T15:45:47.764Z,99007.47
2023-04-14T15:48:14.088Z,99003.00
2023-04-14T15:50:44.974Z,99006.84
2023-04-14T15:53:12.165Z,99011.03
2023-04-14T15:55:39.731Z,98999.41
2023-04-14T15:58:06.497Z,99003.34
2023-04-14T16:00:33.154Z,99003.34
2023-04-14T16:03:01.793Z,98999.22
2023-04-14T16:05:28.569Z,98997.31
2023-04-14T16:07:55.347Z,98997.88
2023-04-14T16:10:21.663Z,98996.34
2023-04-14T16:12:48.665Z,98993.94
2023-04-14T16:15:17.405Z,98994.78
2023-04-14T16:17:44.017Z,99002.09
2023-04-14T16:20:12.417Z,98999.63
2023-04-14T16:22:38.887Z,99000.19
2023-04-14T16:25:06.798Z,99005.44
2023-04-14T16:27:34.031Z,99002.53
2023-04-14T16:30:00.653Z,99001.91
2023-04-14T16:32:42.854Z,99001.19
2023-04-14T16:35:09.706Z,99000.69
2023-04-14T16:37:36.755Z,99001.31
2023-04-14T16:43:56.406Z,98996.28
2023-04-14T16:46:24.322Z,98997.97
2023-04-14T16:48:51.642Z,99006.31
2023-04-14T16:51:18.287Z,98997.44
2023-04-14T16:53:44.841Z,98999.91
2023-04-14T16:59:57.787Z,99005.50
2023-04-14T17:02:24.538Z,99002.50
2023-04-14T17:04:51.300Z,99001.75
2023-04-14T17:07:27.449Z,99005.22
2023-04-14T17:09:54.211Z,99016.69
2023-04-14T17:12:39.146Z,99008.81
2023-04-14T17:15:06.701Z,99018.28
2023-04-14T17:17:33.828Z,99014.59
2023-04-14T17:20:00.624Z,99011.69
2023-04-14T17:22:27.620Z,99019.66
2023-04-14T17:24:54.610Z,99018.75
2023-04-14T17:27:21.345Z,99021.38
2023-04-14T17:29:48.417Z,99022.97
2023-04-14T17:32:15.016Z,99014.94
2023-04-14T17:34:41.700Z,99024.50
2023-04-14T17:37:08.897Z,99022.63
2023-04-14T17:39:35.397Z,99021.56
2023-04-14T17:42:02.163Z,99013.50
2023-04-14T17:44:34.650Z,99018.06
2023-04-14T17:47:01.662Z,99024.81
2023-04-14T17:49:28.369Z,99018.44
2023-04-14T17:51:55.236Z,99029.69
2023-04-14T17:54:22.734Z,99025.94
2023-04-14T17:56:50.410Z,99028.50
2023-04-14T17:59:17.525Z,99031.94
2023-04-14T18:01:44.156Z,99033.66
2023-04-14T18:04:10.991Z,99032.88
2023-04-14T18:06:37.571Z,99033.59
2023-04-14T18:09:04.140Z,99034.47
2023-04-14T18:11:31.524Z,99041.47
2023-04-14T18:13:58.240Z,99042.38
2023-04-14T18:16:25.102Z,99041.56
2023-04-14T18:18:57.480Z,99044.38
2023-04-14T18:26:34.460Z,99050.72
2023-04-14T18:29:01.514Z,99049.22
2023-04-14T18:31:28.388Z,99050.19
2023-04-14T18:33:55.173Z,99052.09
2023-04-14T18:36:21.749Z,99056.72
2023-04-14T18:38:48.236Z,99066.47
2023-04-14T18:41:14.821Z,99061.28
2023-04-14T18:43:41.320Z,99063.91
2023-04-14T18:46:08.331Z,99071.69
2023-04-14T18:48:34.971Z,99080.34
2023-04-14T18:51:04.278Z,99083.69
2023-04-14T18:53:31.818Z,99085.31
2023-04-14T18:55:58.499Z,99092.13
2023-04-14T18:58:25.494Z,99088.31
2023-04-14T19:00:51.894Z,99093.19
2023-04-14T19:03:18.669Z,99094.53
2023-04-14T19:05:45.246Z,99091.56
2023-04-14T19:08:11.782Z,99102.66
2023-04-14T19:10:39.832Z,99099.56
2023-04-14T19:13:06.598Z,99107.06
2023-04-14T19:15:33.209Z,99105.75
2023-04-14T19:17:59.741Z,99103.78
2023-04-14T19:20:26.759Z,99106.22
2023-04-14T19:22:53.352Z,99104.34
2023-04-14T19:25:20.343Z,99106.91
2023-04-14T19:27:46.867Z,99102.50
2023-04-14T19:30:13.848Z,99111.19
2023-04-14T19:32:41.135Z,99110.97
2023-04-14T19:35:08.751Z,99111.75
2023-04-14T19:37:35.964Z,99111.41
2023-04-14T19:40:06.190Z,99131.34
2023-04-14T19:42:33.399Z,99124.91
2023-04-14T19:45:00.545Z,99120.94
2023-04-14T19:47:27.515Z,99120.56
2023-04-14T19:49:55.136Z,99122.84
2023-04-14T19:52:22.229Z,99122.34
2023-04-14T19:54:48.817Z,99126.22
2023-04-14T19:57:15.560Z,99127.53
2023-04-14T19:59:42.494Z,99126.91
2023-04-14T20:02:10.625Z,99124.66
2023-04-14T20:04:37.932Z,99127.63
2023-04-14T20:07:05.084Z,99128.00
2023-04-14T20:09:31.884Z,99120.56
2023-04-14T20:12:00.378Z,99120.19
2023-04-14T20:14:28.059Z,99126.66
2023-04-14T20:16:54.699Z,99122.56
2023-04-14T20:19:21.312Z,99124.72
2023-04-14T20:21:48.360Z,99122.31
2023-04-14T20:24:14.788Z,99119.19
2023-04-14T20:26:43.575Z,99122.06
2023-04-14T20:29:10.070Z,99128.53
2023-04-14T20:31:36.818Z,99116.56
2023-04-14T20:34:04.232Z,99128.16
2023-04-14T20:36:35.566Z,99123.25
2023-04-14T20:39:05.976Z,99133.06
2023-04-14T20:41:36.373Z,99122.97
2023-04-14T20:44:06.372Z,99119.47
2023-04-14T20:46:33.520Z,99123.09
2023-04-14T20:49:01.355Z,99116.25
2023-04-14T20:51:28.856Z,99124.28
2023-04-14T20:53:56.825Z,99123.78
2023-04-14T20:56:27.160Z,99126.75
2023-04-14T20:58:53.797Z,99120.88
2023-04-14T21:01:20.506Z,99116.66
2023-04-14T21:03:47.160Z,99113.28
2023-04-14T21:06:13.731Z,99114.25
2023-04-14T21:08:40.403Z,99119.63
2023-04-14T21:11:16.319Z,99117.97
2023-04-14T21:15:29.030Z,99127.69
2023-04-14T21:16:34.201Z,99120.72
2023-04-14T21:19:02.543Z,99124.41
2023-04-14T21:21:29.356Z,99123.59
2023-04-14T21:23:55.831Z,99127.28
2023-04-14T21:26:23.804Z,99130.97
2023-04-14T21:28:50.824Z,99125.94
2023-04-14T21:31:17.558Z,99128.78
2023-04-14T21:33:44.177Z,99127.22
2023-04-14T21:36:10.937Z,99131.03
2023-04-14T21:38:38.450Z,99135.69
2023-04-14T21:41:05.819Z,99136.00
2023-04-14T21:43:32.442Z,99135.50
2023-04-14T21:45:59.171Z,99133.19
2023-04-14T21:48:25.979Z,99141.56
2023-04-14T21:50:52.529Z,99139.22
2023-04-14T21:53:20.356Z,99140.50
2023-04-14T21:55:47.347Z,99144.44
2023-04-14T21:58:31.137Z,99142.97
2023-04-14T22:00:57.600Z,99143.41
2023-04-14T22:03:24.370Z,99143.75
2023-04-14T22:05:53.229Z,99153.72
2023-04-14T22:08:19.762Z,99151.34
2023-04-14T22:10:47.346Z,99143.75
2023-04-14T22:13:14.863Z,99152.72
2023-04-14T22:15:44.814Z,99151.34
2023-04-14T22:18:11.612Z,99151.56
2023-04-14T22:20:39.236Z,99149.25
2023-04-14T22:23:06.033Z,99143.44
2023-04-14T22:25:33.258Z,99142.94
2023-04-14T22:30:33.253Z,99142.81
2023-04-14T22:32:59.801Z,99143.88
2023-04-14T22:35:26.354Z,99143.25
2023-04-14T22:37:52.759Z,99137.22
2023-04-14T22:40:19.359Z,99136.59
2023-04-14T22:42:46.403Z,99142.81
2023-04-14T22:45:13.501Z,99138.47
2023-04-14T22:47:40.196Z,99141.22
2023-04-14T22:50:07.510Z,99148.19
2023-04-14T22:52:33.922Z,99140.38
2023-04-14T22:55:00.288Z,99147.44
2023-04-14T22:57:27.585Z,99143.13
2023-04-14T22:59:54.136Z,99143.13
2023-04-14T23:02:21.627Z,99146.47
2023-04-14T23:04:48.349Z,99147.44
2023-04-14T23:07:15.462Z,99153.66
2023-04-14T23:09:41.856Z,99151.97
2023-04-14T23:12:08.315Z,99159.88
2023-04-14T23:14:34.776Z,99155.66
2023-04-14T23:17:01.238Z,99153.13
2023-04-14T23:19:27.682Z,99151.53
2023-04-14T23:21:54.133Z,99157.00
2023-04-14T23:24:22.300Z,99158.06
2023-04-14T23:26:48.742Z,99161.72
2023-04-14T23:29:15.164Z,99162.03
2023-04-14T23:31:41.693Z,99164.84
2023-04-14T23:34:10.021Z,99171.16
2023-04-14T23:36:37.565Z,99168.72
2023-04-14T23:39:04.154Z,99172.41
2023-04-14T23:41:30.788Z,99163.75
2023-04-14T23:43:57.165Z,99163.84
2023-04-14T23:46:23.626Z,99165.66
2023-04-14T23:48:51.335Z,99175.41
2023-04-14T23:51:20.085Z,99173.66
2023-04-14T23:53:47.413Z,99169.31
2023-04-14T23:56:13.817Z,99170.16
2023-04-14T23:58:40.233Z,99170.16
